sensor_id;sensor_type;location;lat;lon;timestamp;P1;durP1;ratioP1;P2;durP2;ratioP2
60211;SDS011;46079;48.686;15.598;2023-02-01T00:00:30;2.83;;;0.80;;
60211;SDS011;46079;48.686;15.598;2023-02-01T00:02:55;2.70;;;0.80;;
60211;SDS011;46079;48.686;15.598;2023-02-01T00:05:21;2.65;;;0.80;;
60211;SDS011;46079;48.686;15.598;2023-02-01T00:07:47;2.72;;;0.80;;
60211;SDS011;46079;48.686;15.598;2023-02-01T00:10:14;3.63;;;0.80;;
60211;SDS011;46079;48.686;15.598;2023-02-01T00:12:39;2.92;;;1.00;;
60211;SDS011;46079;48.686;15.598;2023-02-01T00:15:05;3.25;;;0.77;;
60211;SDS011;46079;48.686;15.598;2023-02-01T00:17:30;2.72;;;0.82;;
60211;SDS011;46079;48.686;15.598;2023-02-01T00:19:56;3.10;;;0.98;;
60211;SDS011;46079;48.686;15.598;2023-02-01T00:22:24;2.45;;;0.70;;
60211;SDS011;46079;48.686;15.598;2023-02-01T00:24:50;2.60;;;0.80;;
60211;SDS011;46079;48.686;15.598;2023-02-01T00:27:16;2.88;;;0.90;;
60211;SDS011;46079;48.686;15.598;2023-02-01T00:29:45;3.63;;;1.00;;
60211;SDS011;46079;48.686;15.598;2023-02-01T00:32:11;1.75;;;0.75;;
60211;SDS011;46079;48.686;15.598;2023-02-01T00:34:36;3.08;;;0.90;;
60211;SDS011;46079;48.686;15.598;2023-02-01T00:37:02;3.53;;;0.90;;
60211;SDS011;46079;48.686;15.598;2023-02-01T00:39:28;3.15;;;0.90;;
60211;SDS011;46079;48.686;15.598;2023-02-01T00:41:53;1.63;;;0.70;;
60211;SDS011;46079;48.686;15.598;2023-02-01T00:44:19;2.80;;;0.90;;
60211;SDS011;46079;48.686;15.598;2023-02-01T00:46:44;2.95;;;0.90;;
60211;SDS011;46079;48.686;15.598;2023-02-01T00:49:10;3.38;;;1.00;;
60211;SDS011;46079;48.686;15.598;2023-02-01T00:51:35;3.63;;;0.82;;
60211;SDS011;46079;48.686;15.598;2023-02-01T00:54:01;2.85;;;0.80;;
60211;SDS011;46079;48.686;15.598;2023-02-01T00:56:28;2.63;;;0.85;;
60211;SDS011;46079;48.686;15.598;2023-02-01T00:58:53;3.17;;;0.90;;
60211;SDS011;46079;48.686;15.598;2023-02-01T01:01:20;1.80;;;0.80;;
60211;SDS011;46079;48.686;15.598;2023-02-01T01:03:51;2.95;;;0.73;;
60211;SDS011;46079;48.686;15.598;2023-02-01T01:06:25;2.03;;;0.70;;
60211;SDS011;46079;48.686;15.598;2023-02-01T01:08:55;2.53;;;0.88;;
60211;SDS011;46079;48.686;15.598;2023-02-01T01:11:27;2.80;;;0.90;;
60211;SDS011;46079;48.686;15.598;2023-02-01T01:13:56;3.15;;;0.80;;
60211;SDS011;46079;48.686;15.598;2023-02-01T01:16:24;2.38;;;0.90;;
60211;SDS011;46079;48.686;15.598;2023-02-01T01:18:51;3.25;;;0.88;;
60211;SDS011;46079;48.686;15.598;2023-02-01T01:21:17;2.60;;;0.82;;
60211;SDS011;46079;48.686;15.598;2023-02-01T01:23:43;2.70;;;0.90;;
60211;SDS011;46079;48.686;15.598;2023-02-01T01:26:11;1.88;;;0.75;;
60211;SDS011;46079;48.686;15.598;2023-02-01T01:28:39;3.25;;;0.88;;
60211;SDS011;46079;48.686;15.598;2023-02-01T01:31:07;3.10;;;0.80;;
60211;SDS011;46079;48.686;15.598;2023-02-01T01:33:33;3.22;;;0.90;;
60211;SDS011;46079;48.686;15.598;2023-02-01T01:35:59;2.08;;;0.80;;
60211;SDS011;46079;48.686;15.598;2023-02-01T01:38:24;2.22;;;0.80;;
60211;SDS011;46079;48.686;15.598;2023-02-01T01:40:50;2.75;;;0.90;;
60211;SDS011;46079;48.686;15.598;2023-02-01T01:43:16;2.60;;;0.77;;
60211;SDS011;46079;48.686;15.598;2023-02-01T01:45:45;1.80;;;0.70;;
60211;SDS011;46079;48.686;15.598;2023-02-01T01:48:16;3.35;;;0.80;;
60211;SDS011;46079;48.686;15.598;2023-02-01T01:53:23;4.07;;;0.90;;
60211;SDS011;46079;48.686;15.598;2023-02-01T01:55:52;2.97;;;0.73;;
60211;SDS011;46079;48.686;15.598;2023-02-01T01:58:21;1.92;;;0.70;;
60211;SDS011;46079;48.686;15.598;2023-02-01T02:00:50;1.75;;;0.68;;
60211;SDS011;46079;48.686;15.598;2023-02-01T02:03:19;1.77;;;0.80;;
60211;SDS011;46079;48.686;15.598;2023-02-01T02:05:49;2.80;;;0.80;;
60211;SDS011;46079;48.686;15.598;2023-02-01T02:08:17;1.17;;;0.60;;
60211;SDS011;46079;48.686;15.598;2023-02-01T02:10:46;1.98;;;0.70;;
60211;SDS011;46079;48.686;15.598;2023-02-01T02:13:48;2.90;;;0.77;;
60211;SDS011;46079;48.686;15.598;2023-02-01T02:24:55;2.25;;;0.80;;
60211;SDS011;46079;48.686;15.598;2023-02-01T02:30:37;2.35;;;0.70;;
60211;SDS011;46079;48.686;15.598;2023-02-01T02:39:16;1.45;;;0.60;;
60211;SDS011;46079;48.686;15.598;2023-02-01T02:51:04;2.15;;;0.80;;
60211;SDS011;46079;48.686;15.598;2023-02-01T02:54:00;2.38;;;0.70;;
60211;SDS011;46079;48.686;15.598;2023-02-01T02:56:49;1.75;;;0.60;;
60211;SDS011;46079;48.686;15.598;2023-02-01T02:59:37;1.65;;;0.70;;
60211;SDS011;46079;48.686;15.598;2023-02-01T03:02:23;1.90;;;0.70;;
60211;SDS011;46079;48.686;15.598;2023-02-01T03:05:11;2.90;;;0.70;;
60211;SDS011;46079;48.686;15.598;2023-02-01T03:12:59;2.72;;;0.82;;
60211;SDS011;46079;48.686;15.598;2023-02-01T03:18:21;3.15;;;1.00;;
60211;SDS011;46079;48.686;15.598;2023-02-01T03:20:53;1.63;;;0.70;;
60211;SDS011;46079;48.686;15.598;2023-02-01T03:23:22;3.15;;;0.77;;
60211;SDS011;46079;48.686;15.598;2023-02-01T03:25:51;2.05;;;0.70;;
60211;SDS011;46079;48.686;15.598;2023-02-01T03:28:19;2.35;;;0.70;;
60211;SDS011;46079;48.686;15.598;2023-02-01T03:30:48;1.83;;;0.57;;
60211;SDS011;46079;48.686;15.598;2023-02-01T03:33:18;2.38;;;0.80;;
60211;SDS011;46079;48.686;15.598;2023-02-01T03:46:32;2.75;;;0.80;;
60211;SDS011;46079;48.686;15.598;2023-02-01T03:49:05;1.95;;;0.70;;
60211;SDS011;46079;48.686;15.598;2023-02-01T03:51:33;1.90;;;0.60;;
60211;SDS011;46079;48.686;15.598;2023-02-01T03:54:03;1.20;;;0.52;;
60211;SDS011;46079;48.686;15.598;2023-02-01T03:56:31;1.58;;;0.70;;
60211;SDS011;46079;48.686;15.598;2023-02-01T03:59:02;1.40;;;0.63;;
60211;SDS011;46079;48.686;15.598;2023-02-01T04:01:28;1.80;;;0.70;;
60211;SDS011;46079;48.686;15.598;2023-02-01T04:03:56;1.70;;;0.55;;
60211;SDS011;46079;48.686;15.598;2023-02-01T04:06:23;1.88;;;0.50;;
60211;SDS011;46079;48.686;15.598;2023-02-01T04:08:49;0.82;;;0.50;;
60211;SDS011;46079;48.686;15.598;2023-02-01T04:11:15;2.20;;;0.70;;
60211;SDS011;46079;48.686;15.598;2023-02-01T04:13:40;1.52;;;0.70;;
60211;SDS011;46079;48.686;15.598;2023-02-01T04:16:06;1.95;;;0.60;;
60211;SDS011;46079;48.686;15.598;2023-02-01T04:18:31;1.88;;;0.80;;
60211;SDS011;46079;48.686;15.598;2023-02-01T04:20:57;2.05;;;0.63;;
60211;SDS011;46079;48.686;15.598;2023-02-01T04:23:22;2.60;;;0.60;;
60211;SDS011;46079;48.686;15.598;2023-02-01T04:25:48;1.70;;;0.65;;
60211;SDS011;46079;48.686;15.598;2023-02-01T04:28:13;2.17;;;0.68;;
60211;SDS011;46079;48.686;15.598;2023-02-01T04:30:39;2.30;;;0.70;;
60211;SDS011;46079;48.686;15.598;2023-02-01T04:33:04;1.60;;;0.60;;
60211;SDS011;46079;48.686;15.598;2023-02-01T04:35:33;1.50;;;0.60;;
60211;SDS011;46079;48.686;15.598;2023-02-01T04:37:58;1.52;;;0.60;;
60211;SDS011;46079;48.686;15.598;2023-02-01T04:40:24;2.00;;;0.70;;
60211;SDS011;46079;48.686;15.598;2023-02-01T04:42:50;1.60;;;0.70;;
60211;SDS011;46079;48.686;15.598;2023-02-01T04:45:15;2.95;;;0.70;;
60211;SDS011;46079;48.686;15.598;2023-02-01T04:47:41;0.80;;;0.60;;
60211;SDS011;46079;48.686;15.598;2023-02-01T04:50:06;2.90;;;0.70;;
60211;SDS011;46079;48.686;15.598;2023-02-01T04:52:35;1.27;;;0.50;;
60211;SDS011;46079;48.686;15.598;2023-02-01T04:55:01;1.40;;;0.68;;
60211;SDS011;46079;48.686;15.598;2023-02-01T04:57:28;1.35;;;0.70;;
60211;SDS011;46079;48.686;15.598;2023-02-01T04:59:53;2.58;;;0.70;;
60211;SDS011;46079;48.686;15.598;2023-02-01T05:02:19;1.27;;;0.60;;
60211;SDS011;46079;48.686;15.598;2023-02-01T05:04:44;1.42;;;0.68;;
60211;SDS011;46079;48.686;15.598;2023-02-01T05:07:10;1.85;;;0.60;;
60211;SDS011;46079;48.686;15.598;2023-02-01T05:09:35;1.95;;;0.60;;
60211;SDS011;46079;48.686;15.598;2023-02-01T05:12:01;2.92;;;0.57;;
60211;SDS011;46079;48.686;15.598;2023-02-01T05:14:44;1.55;;;0.70;;
60211;SDS011;46079;48.686;15.598;2023-02-01T05:17:10;1.85;;;0.80;;
60211;SDS011;46079;48.686;15.598;2023-02-01T05:19:35;1.95;;;0.60;;
60211;SDS011;46079;48.686;15.598;2023-02-01T05:22:00;1.48;;;0.70;;
60211;SDS011;46079;48.686;15.598;2023-02-01T05:24:26;1.33;;;0.60;;
60211;SDS011;46079;48.686;15.598;2023-02-01T05:26:52;2.35;;;0.70;;
60211;SDS011;46079;48.686;15.598;2023-02-01T05:29:17;2.47;;;0.68;;
60211;SDS011;46079;48.686;15.598;2023-02-01T05:31:46;1.10;;;0.45;;
60211;SDS011;46079;48.686;15.598;2023-02-01T05:34:13;2.42;;;0.80;;
60211;SDS011;46079;48.686;15.598;2023-02-01T05:36:39;1.30;;;0.52;;
60211;SDS011;46079;48.686;15.598;2023-02-01T05:39:04;1.05;;;0.60;;
60211;SDS011;46079;48.686;15.598;2023-02-01T05:41:30;2.20;;;0.70;;
60211;SDS011;46079;48.686;15.598;2023-02-01T05:43:55;1.23;;;0.50;;
60211;SDS011;46079;48.686;15.598;2023-02-01T05:46:21;1.00;;;0.50;;
60211;SDS011;46079;48.686;15.598;2023-02-01T05:48:49;2.10;;;0.70;;
60211;SDS011;46079;48.686;15.598;2023-02-01T05:51:14;1.02;;;0.50;;
60211;SDS011;46079;48.686;15.598;2023-02-01T05:53:40;1.50;;;0.60;;
60211;SDS011;46079;48.686;15.598;2023-02-01T05:56:05;2.85;;;0.70;;
60211;SDS011;46079;48.686;15.598;2023-02-01T05:58:31;1.52;;;0.60;;
60211;SDS011;46079;48.686;15.598;2023-02-01T06:01:00;1.58;;;0.70;;
60211;SDS011;46079;48.686;15.598;2023-02-01T06:03:26;1.42;;;0.50;;
60211;SDS011;46079;48.686;15.598;2023-02-01T06:05:52;3.42;;;0.80;;
60211;SDS011;46079;48.686;15.598;2023-02-01T06:08:18;1.95;;;0.70;;
60211;SDS011;46079;48.686;15.598;2023-02-01T06:10:43;2.25;;;0.70;;
60211;SDS011;46079;48.686;15.598;2023-02-01T06:13:09;2.08;;;0.70;;
60211;SDS011;46079;48.686;15.598;2023-02-01T06:15:34;2.10;;;0.57;;
60211;SDS011;46079;48.686;15.598;2023-02-01T06:18:02;1.30;;;0.68;;
60211;SDS011;46079;48.686;15.598;2023-02-01T06:20:28;1.38;;;0.50;;
60211;SDS011;46079;48.686;15.598;2023-02-01T06:22:53;1.80;;;0.52;;
60211;SDS011;46079;48.686;15.598;2023-02-01T06:25:19;2.28;;;0.70;;
60211;SDS011;46079;48.686;15.598;2023-02-01T06:27:46;3.67;;;0.80;;
60211;SDS011;46079;48.686;15.598;2023-02-01T06:30:11;2.00;;;0.90;;
60211;SDS011;46079;48.686;15.598;2023-02-01T06:32:38;3.53;;;0.82;;
60211;SDS011;46079;48.686;15.598;2023-02-01T06:35:05;2.85;;;0.80;;
60211;SDS011;46079;48.686;15.598;2023-02-01T06:37:32;3.40;;;0.70;;
60211;SDS011;46079;48.686;15.598;2023-02-01T06:40:02;4.13;;;0.80;;
60211;SDS011;46079;48.686;15.598;2023-02-01T06:42:29;2.00;;;0.80;;
60211;SDS011;46079;48.686;15.598;2023-02-01T06:44:54;3.42;;;0.90;;
60211;SDS011;46079;48.686;15.598;2023-02-01T06:47:20;3.00;;;0.70;;
60211;SDS011;46079;48.686;15.598;2023-02-01T06:49:45;3.00;;;0.75;;
60211;SDS011;46079;48.686;15.598;2023-02-01T06:52:11;4.82;;;1.00;;
60211;SDS011;46079;48.686;15.598;2023-02-01T06:54:36;2.83;;;0.90;;
60211;SDS011;46079;48.686;15.598;2023-02-01T06:57:02;1.42;;;0.70;;
60211;SDS011;46079;48.686;15.598;2023-02-01T06:59:28;1.88;;;0.60;;
60211;SDS011;46079;48.686;15.598;2023-02-01T07:01:53;1.55;;;0.68;;
60211;SDS011;46079;48.686;15.598;2023-02-01T07:04:19;4.13;;;1.00;;
60211;SDS011;46079;48.686;15.598;2023-02-01T07:06:44;1.40;;;0.70;;
60211;SDS011;46079;48.686;15.598;2023-02-01T07:09:10;2.28;;;0.80;;
60211;SDS011;46079;48.686;15.598;2023-02-01T07:11:37;5.25;;;0.85;;
60211;SDS011;46079;48.686;15.598;2023-02-01T07:14:06;4.90;;;0.80;;
60211;SDS011;46079;48.686;15.598;2023-02-01T07:16:31;4.20;;;0.77;;
60211;SDS011;46079;48.686;15.598;2023-02-01T07:18:57;2.63;;;0.80;;
60211;SDS011;46079;48.686;15.598;2023-02-01T07:21:22;2.15;;;0.75;;
60211;SDS011;46079;48.686;15.598;2023-02-01T07:23:47;1.83;;;0.73;;
60211;SDS011;46079;48.686;15.598;2023-02-01T07:26:13;2.47;;;0.80;;
60211;SDS011;46079;48.686;15.598;2023-02-01T07:28:39;3.85;;;0.90;;
60211;SDS011;46079;48.686;15.598;2023-02-01T07:31:10;2.13;;;0.60;;
60211;SDS011;46079;48.686;15.598;2023-02-01T07:33:38;2.60;;;0.80;;
60211;SDS011;46079;48.686;15.598;2023-02-01T07:36:04;2.60;;;0.80;;
60211;SDS011;46079;48.686;15.598;2023-02-01T07:38:32;2.85;;;0.90;;
60211;SDS011;46079;48.686;15.598;2023-02-01T07:40:58;1.63;;;0.70;;
60211;SDS011;46079;48.686;15.598;2023-02-01T07:43:25;2.85;;;0.70;;
60211;SDS011;46079;48.686;15.598;2023-02-01T07:45:52;3.50;;;0.90;;
60211;SDS011;46079;48.686;15.598;2023-02-01T07:48:18;2.40;;;0.80;;
60211;SDS011;46079;48.686;15.598;2023-02-01T07:50:44;1.30;;;0.70;;
60211;SDS011;46079;48.686;15.598;2023-02-01T07:53:09;2.20;;;0.68;;
60211;SDS011;46079;48.686;15.598;2023-02-01T07:55:37;3.30;;;0.85;;
60211;SDS011;46079;48.686;15.598;2023-02-01T07:58:03;2.03;;;0.88;;
60211;SDS011;46079;48.686;15.598;2023-02-01T08:00:29;2.25;;;0.70;;
60211;SDS011;46079;48.686;15.598;2023-02-01T08:03:13;1.20;;;0.50;;
60211;SDS011;46079;48.686;15.598;2023-02-01T08:05:39;2.83;;;0.90;;
60211;SDS011;46079;48.686;15.598;2023-02-01T08:08:04;3.05;;;0.82;;
60211;SDS011;46079;48.686;15.598;2023-02-01T08:10:30;2.60;;;0.90;;
60211;SDS011;46079;48.686;15.598;2023-02-01T08:12:59;2.65;;;0.70;;
60211;SDS011;46079;48.686;15.598;2023-02-01T08:15:25;2.65;;;0.88;;
60211;SDS011;46079;48.686;15.598;2023-02-01T08:17:52;2.85;;;1.00;;
60211;SDS011;46079;48.686;15.598;2023-02-01T08:20:19;2.97;;;0.93;;
60211;SDS011;46079;48.686;15.598;2023-02-01T08:22:47;3.15;;;0.80;;
60211;SDS011;46079;48.686;15.598;2023-02-01T08:25:12;2.53;;;0.85;;
60211;SDS011;46079;48.686;15.598;2023-02-01T08:27:38;2.55;;;0.65;;
60211;SDS011;46079;48.686;15.598;2023-02-01T08:30:04;3.55;;;0.90;;
60211;SDS011;46079;48.686;15.598;2023-02-01T08:32:32;3.53;;;0.82;;
60211;SDS011;46079;48.686;15.598;2023-02-01T08:34:58;4.00;;;0.90;;
60211;SDS011;46079;48.686;15.598;2023-02-01T08:37:23;2.90;;;0.93;;
60211;SDS011;46079;48.686;15.598;2023-02-01T08:39:49;3.33;;;0.75;;
60211;SDS011;46079;48.686;15.598;2023-02-01T08:42:16;2.90;;;0.90;;
60211;SDS011;46079;48.686;15.598;2023-02-01T08:45:01;2.72;;;0.80;;
60211;SDS011;46079;48.686;15.598;2023-02-01T08:47:27;3.90;;;1.10;;
60211;SDS011;46079;48.686;15.598;2023-02-01T08:49:53;3.55;;;1.10;;
60211;SDS011;46079;48.686;15.598;2023-02-01T08:52:19;6.05;;;1.30;;
60211;SDS011;46079;48.686;15.598;2023-02-01T08:54:45;3.88;;;1.42;;
60211;SDS011;46079;48.686;15.598;2023-02-01T08:57:10;4.95;;;1.70;;
60211;SDS011;46079;48.686;15.598;2023-02-01T08:59:35;5.35;;;1.90;;
60211;SDS011;46079;48.686;15.598;2023-02-01T09:02:14;5.90;;;2.00;;
60211;SDS011;46079;48.686;15.598;2023-02-01T09:04:41;6.40;;;2.20;;
60211;SDS011;46079;48.686;15.598;2023-02-01T09:07:07;7.32;;;2.50;;
60211;SDS011;46079;48.686;15.598;2023-02-01T09:09:33;7.20;;;2.70;;
60211;SDS011;46079;48.686;15.598;2023-02-01T09:11:59;7.50;;;2.92;;
60211;SDS011;46079;48.686;15.598;2023-02-01T09:14:24;6.65;;;2.92;;
60211;SDS011;46079;48.686;15.598;2023-02-01T09:16:50;7.13;;;3.20;;
60211;SDS011;46079;48.686;15.598;2023-02-01T09:19:15;7.72;;;3.53;;
60211;SDS011;46079;48.686;15.598;2023-02-01T09:21:43;7.93;;;3.83;;
60211;SDS011;46079;48.686;15.598;2023-02-01T09:24:12;8.48;;;4.10;;
60211;SDS011;46079;48.686;15.598;2023-02-01T09:26:38;7.90;;;4.45;;
60211;SDS011;46079;48.686;15.598;2023-02-01T09:29:03;7.88;;;4.80;;
60211;SDS011;46079;48.686;15.598;2023-02-01T09:34:00;7.88;;;4.68;;
60211;SDS011;46079;48.686;15.598;2023-02-01T09:36:26;9.15;;;5.03;;
60211;SDS011;46079;48.686;15.598;2023-02-01T09:38:52;9.02;;;4.68;;
60211;SDS011;46079;48.686;15.598;2023-02-01T09:46:53;8.82;;;4.72;;
60211;SDS011;46079;48.686;15.598;2023-02-01T09:49:35;8.38;;;4.60;;
60211;SDS011;46079;48.686;15.598;2023-02-01T09:52:07;8.82;;;4.95;;
60211;SDS011;46079;48.686;15.598;2023-02-01T09:54:42;9.60;;;4.88;;
60211;SDS011;46079;48.686;15.598;2023-02-01T09:57:16;7.80;;;4.63;;
60211;SDS011;46079;48.686;15.598;2023-02-01T09:59:49;8.32;;;4.82;;
60211;SDS011;46079;48.686;15.598;2023-02-01T10:02:20;8.57;;;4.82;;
60211;SDS011;46079;48.686;15.598;2023-02-01T10:04:48;7.68;;;4.45;;
60211;SDS011;46079;48.686;15.598;2023-02-01T10:15:24;8.50;;;4.80;;
60211;SDS011;46079;48.686;15.598;2023-02-01T10:18:15;7.60;;;4.18;;
60211;SDS011;46079;48.686;15.598;2023-02-01T10:28:41;7.65;;;4.60;;
60211;SDS011;46079;48.686;15.598;2023-02-01T10:31:09;8.30;;;5.50;;
60211;SDS011;46079;48.686;15.598;2023-02-01T10:33:37;8.57;;;5.32;;
60211;SDS011;46079;48.686;15.598;2023-02-01T10:36:12;9.07;;;5.40;;
60211;SDS011;46079;48.686;15.598;2023-02-01T10:38:42;8.93;;;5.47;;
60211;SDS011;46079;48.686;15.598;2023-02-01T10:41:15;8.13;;;5.00;;
60211;SDS011;46079;48.686;15.598;2023-02-01T10:43:45;8.48;;;5.55;;
60211;SDS011;46079;48.686;15.598;2023-02-01T10:46:13;8.93;;;5.22;;
60211;SDS011;46079;48.686;15.598;2023-02-01T10:48:38;8.23;;;5.13;;
60211;SDS011;46079;48.686;15.598;2023-02-01T10:51:06;8.20;;;5.50;;
60211;SDS011;46079;48.686;15.598;2023-02-01T10:56:11;8.80;;;5.55;;
60211;SDS011;46079;48.686;15.598;2023-02-01T10:58:44;9.82;;;6.13;;
60211;SDS011;46079;48.686;15.598;2023-02-01T11:01:19;9.05;;;6.40;;
60211;SDS011;46079;48.686;15.598;2023-02-01T11:03:58;9.30;;;6.68;;
60211;SDS011;46079;48.686;15.598;2023-02-01T11:06:29;9.68;;;6.78;;
60211;SDS011;46079;48.686;15.598;2023-02-01T11:11:52;10.10;;;6.72;;
60211;SDS011;46079;48.686;15.598;2023-02-01T11:14:22;9.77;;;6.90;;
60211;SDS011;46079;48.686;15.598;2023-02-01T11:17:40;9.98;;;7.30;;
60211;SDS011;46079;48.686;15.598;2023-02-01T11:20:03;9.48;;;6.68;;
60211;SDS011;46079;48.686;15.598;2023-02-01T11:22:31;14.48;;;7.38;;
60211;SDS011;46079;48.686;15.598;2023-02-01T11:24:57;11.15;;;6.88;;
60211;SDS011;46079;48.686;15.598;2023-02-01T11:27:24;9.60;;;6.57;;
60211;SDS011;46079;48.686;15.598;2023-02-01T11:29:52;9.10;;;5.88;;
60211;SDS011;46079;48.686;15.598;2023-02-01T11:32:21;9.52;;;5.82;;
60211;SDS011;46079;48.686;15.598;2023-02-01T11:34:51;8.73;;;5.68;;
60211;SDS011;46079;48.686;15.598;2023-02-01T11:37:24;8.88;;;5.90;;
60211;SDS011;46079;48.686;15.598;2023-02-01T11:39:53;8.50;;;5.55;;
60211;SDS011;46079;48.686;15.598;2023-02-01T11:42:23;9.00;;;5.60;;
60211;SDS011;46079;48.686;15.598;2023-02-01T11:44:50;9.07;;;5.50;;
60211;SDS011;46079;48.686;15.598;2023-02-01T11:47:32;9.98;;;5.15;;
60211;SDS011;46079;48.686;15.598;2023-02-01T11:50:08;9.65;;;5.38;;
60211;SDS011;46079;48.686;15.598;2023-02-01T11:55:38;11.50;;;5.28;;
60211;SDS011;46079;48.686;15.598;2023-02-01T11:58:12;8.55;;;5.25;;
60211;SDS011;46079;48.686;15.598;2023-02-01T12:00:58;7.95;;;4.70;;
60211;SDS011;46079;48.686;15.598;2023-02-01T12:36:12;7.80;;;3.92;;
60211;SDS011;46079;48.686;15.598;2023-02-01T12:41:40;7.95;;;3.60;;
60211;SDS011;46079;48.686;15.598;2023-02-01T12:46:53;9.20;;;3.70;;
60211;SDS011;46079;48.686;15.598;2023-02-01T12:49:27;7.55;;;3.40;;
60211;SDS011;46079;48.686;15.598;2023-02-01T12:52:04;8.15;;;3.50;;
60211;SDS011;46079;48.686;15.598;2023-02-01T12:54:53;7.53;;;3.40;;
60211;SDS011;46079;48.686;15.598;2023-02-01T12:57:28;7.43;;;3.20;;
60211;SDS011;46079;48.686;15.598;2023-02-01T13:02:52;7.97;;;3.42;;
60211;SDS011;46079;48.686;15.598;2023-02-01T13:05:29;8.80;;;3.60;;
60211;SDS011;46079;48.686;15.598;2023-02-01T13:08:11;8.20;;;3.60;;
60211;SDS011;46079;48.686;15.598;2023-02-01T13:10:48;8.85;;;3.67;;
60211;SDS011;46079;48.686;15.598;2023-02-01T13:18:19;8.52;;;3.97;;
60211;SDS011;46079;48.686;15.598;2023-02-01T13:20:55;9.38;;;3.70;;
60211;SDS011;46079;48.686;15.598;2023-02-01T13:23:29;9.20;;;4.20;;
60211;SDS011;46079;48.686;15.598;2023-02-01T13:25:56;10.63;;;3.72;;
60211;SDS011;46079;48.686;15.598;2023-02-01T13:28:35;10.00;;;4.00;;
60211;SDS011;46079;48.686;15.598;2023-02-01T13:33:49;8.68;;;3.53;;
60211;SDS011;46079;48.686;15.598;2023-02-01T13:41:57;8.25;;;3.58;;
60211;SDS011;46079;48.686;15.598;2023-02-01T13:47:34;7.82;;;3.05;;
60211;SDS011;46079;48.686;15.598;2023-02-01T13:52:44;7.45;;;2.53;;
60211;SDS011;46079;48.686;15.598;2023-02-01T13:57:45;8.55;;;3.08;;
60211;SDS011;46079;48.686;15.598;2023-02-01T14:13:13;8.30;;;2.60;;
60211;SDS011;46079;48.686;15.598;2023-02-01T14:26:21;6.68;;;2.22;;
60211;SDS011;46079;48.686;15.598;2023-02-01T14:28:51;7.32;;;2.13;;
60211;SDS011;46079;48.686;15.598;2023-02-01T14:31:32;7.90;;;2.40;;
60211;SDS011;46079;48.686;15.598;2023-02-01T14:34:05;8.27;;;2.40;;
60211;SDS011;46079;48.686;15.598;2023-02-01T14:36:42;7.05;;;2.30;;
60211;SDS011;46079;48.686;15.598;2023-02-01T14:39:29;6.70;;;2.20;;
60211;SDS011;46079;48.686;15.598;2023-02-01T14:41:59;7.95;;;2.40;;
60211;SDS011;46079;48.686;15.598;2023-02-01T14:44:30;7.15;;;2.30;;
60211;SDS011;46079;48.686;15.598;2023-02-01T14:47:04;6.63;;;2.08;;
60211;SDS011;46079;48.686;15.598;2023-02-01T14:49:34;7.20;;;2.20;;
60211;SDS011;46079;48.686;15.598;2023-02-01T14:54:34;6.93;;;1.92;;
60211;SDS011;46079;48.686;15.598;2023-02-01T14:56:59;7.15;;;2.10;;
60211;SDS011;46079;48.686;15.598;2023-02-01T14:59:26;7.40;;;2.15;;
60211;SDS011;46079;48.686;15.598;2023-02-01T15:01:58;4.70;;;1.50;;
60211;SDS011;46079;48.686;15.598;2023-02-01T15:04:26;6.60;;;1.92;;
60211;SDS011;46079;48.686;15.598;2023-02-01T15:06:58;8.35;;;1.73;;
60211;SDS011;46079;48.686;15.598;2023-02-01T15:09:36;6.50;;;1.80;;
60211;SDS011;46079;48.686;15.598;2023-02-01T15:14:43;5.25;;;1.48;;
60211;SDS011;46079;48.686;15.598;2023-02-01T15:17:20;5.50;;;1.80;;
60211;SDS011;46079;48.686;15.598;2023-02-01T15:22:21;5.90;;;1.60;;
60211;SDS011;46079;48.686;15.598;2023-02-01T15:24:54;6.63;;;1.90;;
60211;SDS011;46079;48.686;15.598;2023-02-01T15:27:20;6.25;;;1.75;;
60211;SDS011;46079;48.686;15.598;2023-02-01T15:29:46;5.00;;;1.50;;
60211;SDS011;46079;48.686;15.598;2023-02-01T15:34:58;5.18;;;1.58;;
60211;SDS011;46079;48.686;15.598;2023-02-01T15:37:26;6.65;;;1.75;;
60211;SDS011;46079;48.686;15.598;2023-02-01T15:42:54;6.75;;;1.73;;
60211;SDS011;46079;48.686;15.598;2023-02-01T15:45:29;5.90;;;1.58;;
60211;SDS011;46079;48.686;15.598;2023-02-01T15:47:58;5.25;;;1.40;;
60211;SDS011;46079;48.686;15.598;2023-02-01T15:50:32;5.30;;;1.30;;
60211;SDS011;46079;48.686;15.598;2023-02-01T15:52:58;5.20;;;1.42;;
60211;SDS011;46079;48.686;15.598;2023-02-01T15:55:34;4.30;;;1.33;;
60211;SDS011;46079;48.686;15.598;2023-02-01T15:58:15;4.43;;;1.25;;
60211;SDS011;46079;48.686;15.598;2023-02-01T16:00:50;6.10;;;1.50;;
60211;SDS011;46079;48.686;15.598;2023-02-01T16:06:09;5.53;;;1.33;;
60211;SDS011;46079;48.686;15.598;2023-02-01T16:08:36;4.72;;;1.27;;
60211;SDS011;46079;48.686;15.598;2023-02-01T16:13:34;6.75;;;1.60;;
60211;SDS011;46079;48.686;15.598;2023-02-01T16:16:00;6.13;;;1.40;;
60211;SDS011;46079;48.686;15.598;2023-02-01T16:18:26;5.35;;;1.42;;
60211;SDS011;46079;48.686;15.598;2023-02-01T16:20:52;5.05;;;1.40;;
60211;SDS011;46079;48.686;15.598;2023-02-01T16:23:17;4.55;;;1.30;;
60211;SDS011;46079;48.686;15.598;2023-02-01T16:25:45;4.38;;;1.27;;
60211;SDS011;46079;48.686;15.598;2023-02-01T16:28:11;4.30;;;1.17;;
60211;SDS011;46079;48.686;15.598;2023-02-01T16:30:37;4.72;;;1.25;;
60211;SDS011;46079;48.686;15.598;2023-02-01T16:33:03;4.93;;;1.30;;
60211;SDS011;46079;48.686;15.598;2023-02-01T16:35:34;4.07;;;1.25;;
60211;SDS011;46079;48.686;15.598;2023-02-01T16:38:22;3.38;;;1.08;;
60211;SDS011;46079;48.686;15.598;2023-02-01T16:40:47;5.28;;;1.40;;
60211;SDS011;46079;48.686;15.598;2023-02-01T16:43:15;5.50;;;1.30;;
60211;SDS011;46079;48.686;15.598;2023-02-01T16:45:43;4.65;;;1.33;;
60211;SDS011;46079;48.686;15.598;2023-02-01T16:48:16;4.00;;;1.10;;
60211;SDS011;46079;48.686;15.598;2023-02-01T16:50:46;4.75;;;1.20;;
60211;SDS011;46079;48.686;15.598;2023-02-01T16:53:14;4.07;;;1.08;;
60211;SDS011;46079;48.686;15.598;2023-02-01T16:55:42;4.32;;;1.20;;
60211;SDS011;46079;48.686;15.598;2023-02-01T16:58:08;6.35;;;1.38;;
60211;SDS011;46079;48.686;15.598;2023-02-01T17:00:35;4.40;;;1.10;;
60211;SDS011;46079;48.686;15.598;2023-02-01T17:03:03;3.95;;;1.13;;
60211;SDS011;46079;48.686;15.598;2023-02-01T17:05:32;3.50;;;1.08;;
60211;SDS011;46079;48.686;15.598;2023-02-01T17:08:02;4.85;;;1.20;;
60211;SDS011;46079;48.686;15.598;2023-02-01T17:10:31;2.60;;;1.10;;
60211;SDS011;46079;48.686;15.598;2023-02-01T17:12:57;5.28;;;1.30;;
60211;SDS011;46079;48.686;15.598;2023-02-01T17:15:26;3.63;;;1.10;;
60211;SDS011;46079;48.686;15.598;2023-02-01T17:17:56;5.65;;;1.20;;
60211;SDS011;46079;48.686;15.598;2023-02-01T17:20:23;3.90;;;0.98;;
60211;SDS011;46079;48.686;15.598;2023-02-01T17:22:52;3.78;;;1.10;;
60211;SDS011;46079;48.686;15.598;2023-02-01T17:25:18;3.60;;;1.10;;
60211;SDS011;46079;48.686;15.598;2023-02-01T17:27:49;5.35;;;1.48;;
60211;SDS011;46079;48.686;15.598;2023-02-01T17:30:15;3.42;;;1.05;;
60211;SDS011;46079;48.686;15.598;2023-02-01T17:32:41;5.35;;;1.15;;
60211;SDS011;46079;48.686;15.598;2023-02-01T17:35:15;4.65;;;1.17;;
60211;SDS011;46079;48.686;15.598;2023-02-01T17:37:44;4.18;;;1.08;;
60211;SDS011;46079;48.686;15.598;2023-02-01T17:40:10;3.53;;;0.95;;
60211;SDS011;46079;48.686;15.598;2023-02-01T17:42:39;3.13;;;1.08;;
60211;SDS011;46079;48.686;15.598;2023-02-01T17:47:52;4.75;;;1.10;;
60211;SDS011;46079;48.686;15.598;2023-02-01T17:50:17;5.22;;;1.50;;
60211;SDS011;46079;48.686;15.598;2023-02-01T17:52:46;3.90;;;1.15;;